sensor_id;sensor_type;location;lat;lon;timestamp;P1;durP1;ratioP1;P2;durP2;ratioP2
50549;SDS011;36505;52.512;13.460;2023-07-31T00:02:16;4.32;;;1.38;;
50549;SDS011;36505;52.512;13.460;2023-07-31T00:04:42;4.63;;;2.58;;
50549;SDS011;36505;52.512;13.460;2023-07-31T00:07:07;5.35;;;1.50;;
50549;SDS011;36505;52.512;13.460;2023-07-31T00:09:33;4.45;;;1.33;;
50549;SDS011;36505;52.512;13.460;2023-07-31T00:11:58;4.15;;;1.52;;
50549;SDS011;36505;52.512;13.460;2023-07-31T00:14:24;2.45;;;1.50;;
50549;SDS011;36505;52.512;13.460;2023-07-31T00:16:49;5.00;;;1.77;;
50549;SDS011;36505;52.512;13.460;2023-07-31T00:19:15;3.90;;;1.67;;
50549;SDS011;36505;52.512;13.460;2023-07-31T00:21:40;3.65;;;1.60;;
50549;SDS011;36505;52.512;13.460;2023-07-31T00:24:05;6.40;;;1.60;;
50549;SDS011;36505;52.512;13.460;2023-07-31T00:26:31;3.70;;;1.48;;
50549;SDS011;36505;52.512;13.460;2023-07-31T00:28:56;5.57;;;1.75;;
50549;SDS011;36505;52.512;13.460;2023-07-31T00:31:21;4.57;;;1.35;;
50549;SDS011;36505;52.512;13.460;2023-07-31T00:33:47;4.53;;;1.70;;
50549;SDS011;36505;52.512;13.460;2023-07-31T00:36:12;4.43;;;1.35;;
50549;SDS011;36505;52.512;13.460;2023-07-31T00:38:37;5.38;;;2.38;;
50549;SDS011;36505;52.512;13.460;2023-07-31T00:41:03;5.32;;;1.77;;
50549;SDS011;36505;52.512;13.460;2023-07-31T00:43:28;7.15;;;2.47;;
50549;SDS011;36505;52.512;13.460;2023-07-31T00:45:54;3.25;;;1.63;;
50549;SDS011;36505;52.512;13.460;2023-07-31T00:48:19;4.50;;;1.83;;
50549;SDS011;36505;52.512;13.460;2023-07-31T00:50:45;5.20;;;1.73;;
50549;SDS011;36505;52.512;13.460;2023-07-31T00:53:10;4.22;;;2.00;;
50549;SDS011;36505;52.512;13.460;2023-07-31T00:55:36;8.43;;;2.30;;
50549;SDS011;36505;52.512;13.460;2023-07-31T00:58:01;5.75;;;1.92;;
50549;SDS011;36505;52.512;13.460;2023-07-31T01:00:26;6.65;;;1.90;;
50549;SDS011;36505;52.512;13.460;2023-07-31T01:02:52;4.90;;;2.60;;
50549;SDS011;36505;52.512;13.460;2023-07-31T01:05:25;5.85;;;1.90;;
50549;SDS011;36505;52.512;13.460;2023-07-31T01:08:07;8.75;;;1.92;;
50549;SDS011;36505;52.512;13.460;2023-07-31T01:10:46;3.85;;;1.23;;
50549;SDS011;36505;52.512;13.460;2023-07-31T01:13:15;4.22;;;2.10;;
50549;SDS011;36505;52.512;13.460;2023-07-31T01:15:42;4.38;;;1.70;;
50549;SDS011;36505;52.512;13.460;2023-07-31T01:18:08;3.33;;;1.60;;
50549;SDS011;36505;52.512;13.460;2023-07-31T01:20:33;7.93;;;2.00;;
50549;SDS011;36505;52.512;13.460;2023-07-31T01:28:20;5.53;;;1.98;;
50549;SDS011;36505;52.512;13.460;2023-07-31T01:30:52;4.13;;;1.67;;
50549;SDS011;36505;52.512;13.460;2023-07-31T01:33:22;6.18;;;1.77;;
50549;SDS011;36505;52.512;13.460;2023-07-31T01:35:47;4.28;;;1.85;;
50549;SDS011;36505;52.512;13.460;2023-07-31T01:38:13;5.22;;;1.77;;
50549;SDS011;36505;52.512;13.460;2023-07-31T01:40:41;2.17;;;1.33;;
50549;SDS011;36505;52.512;13.460;2023-07-31T01:43:07;6.63;;;2.22;;
50549;SDS011;36505;52.512;13.460;2023-07-31T01:45:32;8.65;;;1.83;;
50549;SDS011;36505;52.512;13.460;2023-07-31T01:47:58;4.30;;;2.13;;
50549;SDS011;36505;52.512;13.460;2023-07-31T01:50:23;5.60;;;2.00;;
50549;SDS011;36505;52.512;13.460;2023-07-31T01:52:48;14.57;;;1.73;;
50549;SDS011;36505;52.512;13.460;2023-07-31T01:55:14;7.70;;;1.92;;
50549;SDS011;36505;52.512;13.460;2023-07-31T01:57:39;5.85;;;2.08;;
50549;SDS011;36505;52.512;13.460;2023-07-31T02:00:05;6.20;;;2.35;;
50549;SDS011;36505;52.512;13.460;2023-07-31T02:02:31;3.47;;;1.63;;
50549;SDS011;36505;52.512;13.460;2023-07-31T02:04:56;5.68;;;1.88;;
50549;SDS011;36505;52.512;13.460;2023-07-31T02:07:22;5.75;;;2.10;;
50549;SDS011;36505;52.512;13.460;2023-07-31T02:09:47;4.40;;;1.83;;
50549;SDS011;36505;52.512;13.460;2023-07-31T02:12:13;5.38;;;1.95;;
50549;SDS011;36505;52.512;13.460;2023-07-31T02:14:39;2.47;;;1.50;;
50549;SDS011;36505;52.512;13.460;2023-07-31T02:17:05;4.35;;;1.60;;
50549;SDS011;36505;52.512;13.460;2023-07-31T02:19:31;4.90;;;1.80;;
50549;SDS011;36505;52.512;13.460;2023-07-31T02:21:56;5.75;;;1.88;;
50549;SDS011;36505;52.512;13.460;2023-07-31T02:24:22;4.72;;;1.95;;
50549;SDS011;36505;52.512;13.460;2023-07-31T02:26:47;5.35;;;1.95;;
50549;SDS011;36505;52.512;13.460;2023-07-31T02:29:12;5.30;;;1.73;;
50549;SDS011;36505;52.512;13.460;2023-07-31T02:31:38;11.60;;;2.30;;
50549;SDS011;36505;52.512;13.460;2023-07-31T02:34:04;3.03;;;1.70;;
50549;SDS011;36505;52.512;13.460;2023-07-31T02:36:29;5.07;;;1.90;;
50549;SDS011;36505;52.512;13.460;2023-07-31T02:38:54;3.45;;;1.88;;
50549;SDS011;36505;52.512;13.460;2023-07-31T02:41:20;6.72;;;2.17;;
50549;SDS011;36505;52.512;13.460;2023-07-31T02:43:45;6.78;;;1.90;;
50549;SDS011;36505;52.512;13.460;2023-07-31T02:46:11;3.08;;;1.73;;
50549;SDS011;36505;52.512;13.460;2023-07-31T02:48:36;7.45;;;2.35;;
50549;SDS011;36505;52.512;13.460;2023-07-31T02:51:01;5.00;;;2.22;;
50549;SDS011;36505;52.512;13.460;2023-07-31T02:53:27;3.40;;;1.90;;
50549;SDS011;36505;52.512;13.460;2023-07-31T02:55:52;6.15;;;2.25;;
50549;SDS011;36505;52.512;13.460;2023-07-31T02:58:17;5.88;;;1.83;;
50549;SDS011;36505;52.512;13.460;2023-07-31T03:00:43;4.60;;;2.70;;
50549;SDS011;36505;52.512;13.460;2023-07-31T03:03:09;5.25;;;2.10;;
50549;SDS011;36505;52.512;13.460;2023-07-31T03:05:34;8.55;;;2.60;;
50549;SDS011;36505;52.512;13.460;2023-07-31T03:08:01;6.72;;;2.58;;
50549;SDS011;36505;52.512;13.460;2023-07-31T03:10:26;5.68;;;2.63;;
50549;SDS011;36505;52.512;13.460;2023-07-31T03:12:52;4.15;;;2.20;;
50549;SDS011;36505;52.512;13.460;2023-07-31T03:15:17;8.85;;;2.70;;
50549;SDS011;36505;52.512;13.460;2023-07-31T03:17:42;5.82;;;2.58;;
50549;SDS011;36505;52.512;13.460;2023-07-31T03:20:08;6.28;;;2.30;;
50549;SDS011;36505;52.512;13.460;2023-07-31T03:22:34;7.03;;;2.67;;
50549;SDS011;36505;52.512;13.460;2023-07-31T03:25:00;5.20;;;2.47;;
50549;SDS011;36505;52.512;13.460;2023-07-31T03:27:26;9.05;;;3.45;;
50549;SDS011;36505;52.512;13.460;2023-07-31T03:29:51;8.75;;;3.20;;
50549;SDS011;36505;52.512;13.460;2023-07-31T03:32:17;5.47;;;2.60;;
50549;SDS011;36505;52.512;13.460;2023-07-31T03:34:42;6.47;;;3.00;;
50549;SDS011;36505;52.512;13.460;2023-07-31T03:37:08;11.18;;;3.70;;
50549;SDS011;36505;52.512;13.460;2023-07-31T03:39:34;9.35;;;3.75;;
50549;SDS011;36505;52.512;13.460;2023-07-31T03:42:00;10.10;;;3.30;;
50549;SDS011;36505;52.512;13.460;2023-07-31T03:44:25;7.20;;;2.83;;
50549;SDS011;36505;52.512;13.460;2023-07-31T03:46:50;7.82;;;2.70;;
50549;SDS011;36505;52.512;13.460;2023-07-31T03:49:16;7.60;;;3.20;;
50549;SDS011;36505;52.512;13.460;2023-07-31T03:51:41;8.30;;;3.00;;
50549;SDS011;36505;52.512;13.460;2023-07-31T03:54:07;8.00;;;3.10;;
50549;SDS011;36505;52.512;13.460;2023-07-31T03:56:32;7.97;;;3.55;;
50549;SDS011;36505;52.512;13.460;2023-07-31T03:58:58;8.52;;;3.90;;
50549;SDS011;36505;52.512;13.460;2023-07-31T04:01:23;6.40;;;2.90;;
50549;SDS011;36505;52.512;13.460;2023-07-31T04:03:49;9.73;;;2.92;;
50549;SDS011;36505;52.512;13.460;2023-07-31T04:06:14;10.60;;;3.55;;
50549;SDS011;36505;52.512;13.460;2023-07-31T04:08:43;8.88;;;3.08;;
50549;SDS011;36505;52.512;13.460;2023-07-31T04:11:09;7.65;;;3.60;;
50549;SDS011;36505;52.512;13.460;2023-07-31T04:13:34;7.22;;;3.20;;
50549;SDS011;36505;52.512;13.460;2023-07-31T04:15:59;7.72;;;3.50;;
50549;SDS011;36505;52.512;13.460;2023-07-31T04:18:25;6.78;;;2.92;;
50549;SDS011;36505;52.512;13.460;2023-07-31T04:20:51;8.45;;;2.85;;
50549;SDS011;36505;52.512;13.460;2023-07-31T04:23:16;7.22;;;3.38;;
50549;SDS011;36505;52.512;13.460;2023-07-31T04:25:41;6.38;;;2.78;;
50549;SDS011;36505;52.512;13.460;2023-07-31T04:28:07;9.38;;;2.88;;
50549;SDS011;36505;52.512;13.460;2023-07-31T04:30:33;4.45;;;2.30;;
50549;SDS011;36505;52.512;13.460;2023-07-31T04:32:58;8.60;;;2.70;;
50549;SDS011;36505;52.512;13.460;2023-07-31T04:35:24;6.63;;;2.63;;
50549;SDS011;36505;52.512;13.460;2023-07-31T04:37:49;5.40;;;3.00;;
50549;SDS011;36505;52.512;13.460;2023-07-31T04:40:15;6.43;;;2.63;;
50549;SDS011;36505;52.512;13.460;2023-07-31T04:42:41;5.40;;;2.70;;
50549;SDS011;36505;52.512;13.460;2023-07-31T04:45:08;7.85;;;2.50;;
50549;SDS011;36505;52.512;13.460;2023-07-31T04:47:34;12.73;;;3.58;;
50549;SDS011;36505;52.512;13.460;2023-07-31T04:49:59;7.78;;;4.28;;
50549;SDS011;36505;52.512;13.460;2023-07-31T04:52:24;7.63;;;3.15;;
50549;SDS011;36505;52.512;13.460;2023-07-31T04:54:50;6.55;;;3.40;;
50549;SDS011;36505;52.512;13.460;2023-07-31T04:57:15;7.63;;;2.90;;
50549;SDS011;36505;52.512;13.460;2023-07-31T04:59:40;8.48;;;3.10;;
50549;SDS011;36505;52.512;13.460;2023-07-31T05:02:07;8.00;;;3.35;;
50549;SDS011;36505;52.512;13.460;2023-07-31T05:04:33;5.85;;;2.50;;
50549;SDS011;36505;52.512;13.460;2023-07-31T05:06:59;8.13;;;3.38;;
50549;SDS011;36505;52.512;13.460;2023-07-31T05:09:24;7.20;;;3.38;;
50549;SDS011;36505;52.512;13.460;2023-07-31T05:11:50;9.10;;;3.88;;
50549;SDS011;36505;52.512;13.460;2023-07-31T05:14:15;8.38;;;2.97;;
50549;SDS011;36505;52.512;13.460;2023-07-31T05:16:40;5.40;;;2.85;;
50549;SDS011;36505;52.512;13.460;2023-07-31T05:19:06;10.13;;;2.95;;
50549;SDS011;36505;52.512;13.460;2023-07-31T05:21:31;9.45;;;4.32;;
50549;SDS011;36505;52.512;13.460;2023-07-31T05:23:57;9.65;;;4.55;;
50549;SDS011;36505;52.512;13.460;2023-07-31T05:26:22;10.85;;;3.03;;
50549;SDS011;36505;52.512;13.460;2023-07-31T05:28:48;7.03;;;2.47;;
50549;SDS011;36505;52.512;13.460;2023-07-31T05:31:13;4.88;;;2.65;;
50549;SDS011;36505;52.512;13.460;2023-07-31T05:33:38;7.72;;;2.45;;
50549;SDS011;36505;52.512;13.460;2023-07-31T05:36:04;7.90;;;3.08;;
50549;SDS011;36505;52.512;13.460;2023-07-31T05:38:29;14.95;;;3.33;;
50549;SDS011;36505;52.512;13.460;2023-07-31T05:40:55;5.10;;;2.50;;
50549;SDS011;36505;52.512;13.460;2023-07-31T05:43:20;9.35;;;2.78;;
50549;SDS011;36505;52.512;13.460;2023-07-31T05:45:46;8.07;;;3.03;;
50549;SDS011;36505;52.512;13.460;2023-07-31T05:48:11;7.05;;;3.65;;
50549;SDS011;36505;52.512;13.460;2023-07-31T05:50:36;8.50;;;2.83;;
50549;SDS011;36505;52.512;13.460;2023-07-31T05:53:05;7.65;;;3.08;;
50549;SDS011;36505;52.512;13.460;2023-07-31T05:55:31;8.75;;;2.38;;
50549;SDS011;36505;52.512;13.460;2023-07-31T05:57:57;6.30;;;2.08;;
50549;SDS011;36505;52.512;13.460;2023-07-31T06:00:22;9.90;;;2.95;;
50549;SDS011;36505;52.512;13.460;2023-07-31T06:02:48;4.90;;;2.53;;
50549;SDS011;36505;52.512;13.460;2023-07-31T06:05:13;9.80;;;4.15;;
50549;SDS011;36505;52.512;13.460;2023-07-31T06:07:39;4.38;;;2.38;;
50549;SDS011;36505;52.512;13.460;2023-07-31T06:10:05;8.60;;;3.28;;
50549;SDS011;36505;52.512;13.460;2023-07-31T06:12:33;5.93;;;2.65;;
50549;SDS011;36505;52.512;13.460;2023-07-31T06:14:59;6.82;;;2.20;;
50549;SDS011;36505;52.512;13.460;2023-07-31T06:17:25;7.72;;;2.70;;
50549;SDS011;36505;52.512;13.460;2023-07-31T06:19:54;7.28;;;3.05;;
50549;SDS011;36505;52.512;13.460;2023-07-31T06:22:19;7.95;;;2.97;;
50549;SDS011;36505;52.512;13.460;2023-07-31T06:24:45;12.73;;;3.08;;
50549;SDS011;36505;52.512;13.460;2023-07-31T06:27:11;6.18;;;2.42;;
50549;SDS011;36505;52.512;13.460;2023-07-31T06:29:36;11.18;;;2.53;;
50549;SDS011;36505;52.512;13.460;2023-07-31T06:32:02;7.95;;;2.80;;
50549;SDS011;36505;52.512;13.460;2023-07-31T06:34:28;4.70;;;2.40;;
50549;SDS011;36505;52.512;13.460;2023-07-31T06:36:53;9.40;;;2.78;;
50549;SDS011;36505;52.512;13.460;2023-07-31T06:39:20;5.47;;;2.85;;
50549;SDS011;36505;52.512;13.460;2023-07-31T06:41:46;9.70;;;5.30;;
50549;SDS011;36505;52.512;13.460;2023-07-31T06:44:11;8.35;;;2.80;;
50549;SDS011;36505;52.512;13.460;2023-07-31T06:46:36;3.92;;;2.20;;
50549;SDS011;36505;52.512;13.460;2023-07-31T06:49:02;8.95;;;2.38;;
50549;SDS011;36505;52.512;13.460;2023-07-31T06:51:27;6.25;;;2.20;;
50549;SDS011;36505;52.512;13.460;2023-07-31T06:53:53;8.55;;;3.13;;
50549;SDS011;36505;52.512;13.460;2023-07-31T06:56:18;11.85;;;2.92;;
50549;SDS011;36505;52.512;13.460;2023-07-31T06:58:43;7.03;;;2.38;;
50549;SDS011;36505;52.512;13.460;2023-07-31T07:01:09;6.43;;;2.33;;
50549;SDS011;36505;52.512;13.460;2023-07-31T07:03:34;7.53;;;2.35;;
50549;SDS011;36505;52.512;13.460;2023-07-31T07:05:59;7.55;;;2.28;;
50549;SDS011;36505;52.512;13.460;2023-07-31T07:08:25;7.45;;;2.15;;
50549;SDS011;36505;52.512;13.460;2023-07-31T07:10:51;8.40;;;2.00;;
50549;SDS011;36505;52.512;13.460;2023-07-31T07:13:16;6.18;;;2.03;;
50549;SDS011;36505;52.512;13.460;2023-07-31T07:15:43;4.32;;;2.20;;
50549;SDS011;36505;52.512;13.460;2023-07-31T07:18:12;10.70;;;2.60;;
50549;SDS011;36505;52.512;13.460;2023-07-31T07:20:39;4.70;;;1.80;;
50549;SDS011;36505;52.512;13.460;2023-07-31T07:23:04;5.72;;;2.33;;
50549;SDS011;36505;52.512;13.460;2023-07-31T07:25:30;7.45;;;2.90;;
50549;SDS011;36505;52.512;13.460;2023-07-31T07:27:55;6.75;;;2.00;;
50549;SDS011;36505;52.512;13.460;2023-07-31T07:30:20;7.40;;;2.35;;
50549;SDS011;36505;52.512;13.460;2023-07-31T07:32:46;6.30;;;1.83;;
50549;SDS011;36505;52.512;13.460;2023-07-31T07:35:11;4.28;;;1.77;;
50549;SDS011;36505;52.512;13.460;2023-07-31T07:37:37;7.00;;;2.30;;
50549;SDS011;36505;52.512;13.460;2023-07-31T07:40:02;5.63;;;2.08;;
50549;SDS011;36505;52.512;13.460;2023-07-31T07:42:27;7.50;;;2.13;;
50549;SDS011;36505;52.512;13.460;2023-07-31T07:44:53;6.32;;;2.58;;
50549;SDS011;36505;52.512;13.460;2023-07-31T07:50:12;5.28;;;2.20;;
50549;SDS011;36505;52.512;13.460;2023-07-31T07:52:37;7.00;;;2.00;;
50549;SDS011;36505;52.512;13.460;2023-07-31T07:55:03;6.45;;;2.33;;
50549;SDS011;36505;52.512;13.460;2023-07-31T07:57:29;7.95;;;2.33;;
50549;SDS011;36505;52.512;13.460;2023-07-31T07:59:54;5.35;;;1.95;;
50549;SDS011;36505;52.512;13.460;2023-07-31T08:02:20;8.07;;;2.00;;
50549;SDS011;36505;52.512;13.460;2023-07-31T08:04:45;6.60;;;1.80;;
50549;SDS011;36505;52.512;13.460;2023-07-31T08:07:11;3.50;;;1.70;;
50549;SDS011;36505;52.512;13.460;2023-07-31T08:09:40;5.25;;;2.10;;
50549;SDS011;36505;52.512;13.460;2023-07-31T08:12:06;4.72;;;2.08;;
50549;SDS011;36505;52.512;13.460;2023-07-31T08:14:32;7.40;;;1.95;;
50549;SDS011;36505;52.512;13.460;2023-07-31T08:16:57;10.50;;;2.38;;
50549;SDS011;36505;52.512;13.460;2023-07-31T08:19:22;5.70;;;2.05;;
50549;SDS011;36505;52.512;13.460;2023-07-31T08:21:48;3.35;;;1.67;;
50549;SDS011;36505;52.512;13.460;2023-07-31T08:24:13;5.32;;;1.85;;
50549;SDS011;36505;52.512;13.460;2023-07-31T08:26:39;5.20;;;2.08;;
50549;SDS011;36505;52.512;13.460;2023-07-31T08:29:04;6.80;;;2.13;;
50549;SDS011;36505;52.512;13.460;2023-07-31T08:31:30;5.20;;;2.05;;
50549;SDS011;36505;52.512;13.460;2023-07-31T08:33:55;7.32;;;2.38;;
50549;SDS011;36505;52.512;13.460;2023-07-31T08:36:21;11.30;;;1.95;;
50549;SDS011;36505;52.512;13.460;2023-07-31T08:38:46;2.88;;;1.80;;
50549;SDS011;36505;52.512;13.460;2023-07-31T08:41:12;3.53;;;1.42;;
50549;SDS011;36505;52.512;13.460;2023-07-31T08:43:38;5.10;;;1.92;;
50549;SDS011;36505;52.512;13.460;2023-07-31T08:46:04;3.75;;;1.90;;
50549;SDS011;36505;52.512;13.460;2023-07-31T08:48:30;3.87;;;2.00;;
50549;SDS011;36505;52.512;13.460;2023-07-31T08:50:57;5.80;;;1.70;;
50549;SDS011;36505;52.512;13.460;2023-07-31T08:53:22;3.80;;;1.88;;
50549;SDS011;36505;52.512;13.460;2023-07-31T08:55:48;6.10;;;1.88;;
50549;SDS011;36505;52.512;13.460;2023-07-31T08:58:14;12.73;;;1.95;;
50549;SDS011;36505;52.512;13.460;2023-07-31T09:00:40;15.07;;;2.05;;
50549;SDS011;36505;52.512;13.460;2023-07-31T09:03:09;4.40;;;1.80;;
50549;SDS011;36505;52.512;13.460;2023-07-31T09:05:42;6.47;;;2.22;;
50549;SDS011;36505;52.512;13.460;2023-07-31T09:08:11;4.65;;;2.05;;
50549;SDS011;36505;52.512;13.460;2023-07-31T09:10:42;12.23;;;2.00;;
50549;SDS011;36505;52.512;13.460;2023-07-31T09:13:08;3.08;;;1.80;;
50549;SDS011;36505;52.512;13.460;2023-07-31T09:15:35;3.03;;;1.52;;
50549;SDS011;36505;52.512;13.460;2023-07-31T09:18:03;2.58;;;1.40;;
50549;SDS011;36505;52.512;13.460;2023-07-31T09:20:30;4.93;;;2.60;;
50549;SDS011;36505;52.512;13.460;2023-07-31T09:22:57;3.67;;;2.03;;
50549;SDS011;36505;52.512;13.460;2023-07-31T09:25:40;3.20;;;1.55;;
50549;SDS011;36505;52.512;13.460;2023-07-31T09:28:09;4.88;;;1.80;;
50549;SDS011;36505;52.512;13.460;2023-07-31T09:30:46;3.92;;;1.77;;
50549;SDS011;36505;52.512;13.460;2023-07-31T09:33:16;4.03;;;1.88;;
50549;SDS011;36505;52.512;13.460;2023-07-31T09:35:42;4.43;;;1.83;;
50549;SDS011;36505;52.512;13.460;2023-07-31T09:38:09;5.07;;;1.92;;
50549;SDS011;36505;52.512;13.460;2023-07-31T09:40:37;9.10;;;1.70;;
50549;SDS011;36505;52.512;13.460;2023-07-31T09:43:05;3.70;;;1.75;;
50549;SDS011;36505;52.512;13.460;2023-07-31T09:45:36;6.10;;;1.80;;
50549;SDS011;36505;52.512;13.460;2023-07-31T09:48:03;3.40;;;1.02;;
50549;SDS011;36505;52.512;13.460;2023-07-31T09:50:34;4.50;;;1.40;;
50549;SDS011;36505;52.512;13.460;2023-07-31T09:53:03;5.68;;;1.40;;
50549;SDS011;36505;52.512;13.460;2023-07-31T09:55:28;6.32;;;2.10;;
50549;SDS011;36505;52.512;13.460;2023-07-31T09:57:54;3.63;;;1.55;;
50549;SDS011;36505;52.512;13.460;2023-07-31T10:00:22;6.05;;;1.60;;
50549;SDS011;36505;52.512;13.460;2023-07-31T10:02:50;3.25;;;1.25;;
50549;SDS011;36505;52.512;13.460;2023-07-31T10:05:16;3.17;;;1.25;;
50549;SDS011;36505;52.512;13.460;2023-07-31T10:07:43;4.13;;;1.70;;
50549;SDS011;36505;52.512;13.460;2023-07-31T10:10:15;2.42;;;1.55;;
50549;SDS011;36505;52.512;13.460;2023-07-31T10:12:41;5.07;;;2.00;;
50549;SDS011;36505;52.512;13.460;2023-07-31T10:15:09;2.78;;;1.60;;
50549;SDS011;36505;52.512;13.460;2023-07-31T10:17:35;2.17;;;1.55;;
50549;SDS011;36505;52.512;13.460;2023-07-31T10:20:02;2.92;;;1.50;;
50549;SDS011;36505;52.512;13.460;2023-07-31T10:22:31;5.03;;;2.00;;
50549;SDS011;36505;52.512;13.460;2023-07-31T10:24:57;4.45;;;2.75;;
50549;SDS011;36505;52.512;13.460;2023-07-31T10:27:24;4.88;;;2.60;;
50549;SDS011;36505;52.512;13.460;2023-07-31T10:29:49;8.23;;;2.88;;
50549;SDS011;36505;52.512;13.460;2023-07-31T10:32:16;9.27;;;2.50;;
50549;SDS011;36505;52.512;13.460;2023-07-31T10:34:42;4.65;;;2.38;;
50549;SDS011;36505;52.512;13.460;2023-07-31T10:39:58;6.82;;;3.08;;
50549;SDS011;36505;52.512;13.460;2023-07-31T10:42:36;5.95;;;3.20;;
50549;SDS011;36505;52.512;13.460;2023-07-31T10:45:10;9.05;;;3.95;;
50549;SDS011;36505;52.512;13.460;2023-07-31T10:47:45;6.75;;;2.90;;
50549;SDS011;36505;52.512;13.460;2023-07-31T10:50:12;6.82;;;3.38;;
50549;SDS011;36505;52.512;13.460;2023-07-31T10:52:52;8.55;;;3.28;;
50549;SDS011;36505;52.512;13.460;2023-07-31T10:55:25;9.93;;;3.47;;
50549;SDS011;36505;52.512;13.460;2023-07-31T10:57:52;9.70;;;3.25;;
50549;SDS011;36505;52.512;13.460;2023-07-31T11:00:19;6.82;;;2.97;;
50549;SDS011;36505;52.512;13.460;2023-07-31T11:03:01;5.45;;;2.95;;
50549;SDS011;36505;52.512;13.460;2023-07-31T11:08:24;9.10;;;3.55;;
50549;SDS011;36505;52.512;13.460;2023-07-31T11:13:28;15.15;;;3.63;;
50549;SDS011;36505;52.512;13.460;2023-07-31T11:15:54;7.78;;;2.95;;
50549;SDS011;36505;52.512;13.460;2023-07-31T11:18:19;8.70;;;3.50;;
50549;SDS011;36505;52.512;13.460;2023-07-31T11:20:45;5.40;;;2.72;;
50549;SDS011;36505;52.512;13.460;2023-07-31T11:23:10;11.02;;;2.95;;
50549;SDS011;36505;52.512;13.460;2023-07-31T11:25:37;12.20;;;3.20;;
50549;SDS011;36505;52.512;13.460;2023-07-31T11:28:07;9.88;;;3.38;;
50549;SDS011;36505;52.512;13.460;2023-07-31T11:30:34;10.23;;;4.28;;
50549;SDS011;36505;52.512;13.460;2023-07-31T11:33:03;12.13;;;4.90;;
50549;SDS011;36505;52.512;13.460;2023-07-31T11:35:31;10.25;;;5.47;;
50549;SDS011;36505;52.512;13.460;2023-07-31T11:38:00;9.38;;;3.90;;
50549;SDS011;36505;52.512;13.460;2023-07-31T11:40:26;5.72;;;3.45;;
50549;SDS011;36505;52.512;13.460;2023-07-31T11:42:57;7.95;;;2.90;;
50549;SDS011;36505;52.512;13.460;2023-07-31T11:45:27;8.07;;;3.00;;
50549;SDS011;36505;52.512;13.460;2023-07-31T11:47:56;5.75;;;2.92;;
50549;SDS011;36505;52.512;13.460;2023-07-31T11:50:22;7.40;;;2.55;;
50549;SDS011;36505;52.512;13.460;2023-07-31T11:52:51;7.20;;;2.85;;
50549;SDS011;36505;52.512;13.460;2023-07-31T11:55:21;6.03;;;2.72;;
50549;SDS011;36505;52.512;13.460;2023-07-31T11:57:47;7.95;;;2.70;;
50549;SDS011;36505;52.512;13.460;2023-07-31T12:00:13;7.25;;;2.45;;
50549;SDS011;36505;52.512;13.460;2023-07-31T12:02:40;7.57;;;3.40;;
50549;SDS011;36505;52.512;13.460;2023-07-31T12:05:06;7.57;;;2.92;;
50549;SDS011;36505;52.512;13.460;2023-07-31T12:07:45;7.90;;;3.40;;
50549;SDS011;36505;52.512;13.460;2023-07-31T12:10:25;6.72;;;3.42;;
50549;SDS011;36505;52.512;13.460;2023-07-31T12:13:11;7.50;;;2.85;;
50549;SDS011;36505;52.512;13.460;2023-07-31T12:15:44;7.40;;;3.72;;
50549;SDS011;36505;52.512;13.460;2023-07-31T12:18:11;7.70;;;3.25;;
50549;SDS011;36505;52.512;13.460;2023-07-31T12:20:45;6.07;;;2.97;;
50549;SDS011;36505;52.512;13.460;2023-07-31T12:23:19;8.25;;;3.40;;
50549;SDS011;36505;52.512;13.460;2023-07-31T12:26:06;6.88;;;2.50;;
50549;SDS011;36505;52.512;13.460;2023-07-31T12:28:36;6.57;;;2.95;;
50549;SDS011;36505;52.512;13.460;2023-07-31T12:31:03;5.20;;;2.60;;
50549;SDS011;36505;52.512;13.460;2023-07-31T12:33:33;7.20;;;2.95;;
50549;SDS011;36505;52.512;13.460;2023-07-31T12:36:00;5.43;;;2.65;;
50549;SDS011;36505;52.512;13.460;2023-07-31T12:38:27;5.60;;;2.25;;
50549;SDS011;36505;52.512;13.460;2023-07-31T12:40:53;6.47;;;2.35;;
50549;SDS011;36505;52.512;13.460;2023-07-31T12:43:18;5.30;;;2.33;;
50549;SDS011;36505;52.512;13.460;2023-07-31T12:45:44;4.93;;;2.47;;
50549;SDS011;36505;52.512;13.460;2023-07-31T12:48:09;4.68;;;2.10;;
50549;SDS011;36505;52.512;13.460;2023-07-31T12:50:34;8.23;;;2.75;;
50549;SDS011;36505;52.512;13.460;2023-07-31T12:53:01;8.32;;;3.08;;
50549;SDS011;36505;52.512;13.460;2023-07-31T12:55:28;6.10;;;3.03;;
50549;SDS011;36505;52.512;13.460;2023-07-31T12:57:53;7.25;;;2.92;;
50549;SDS011;36505;52.512;13.460;2023-07-31T13:00:19;7.43;;;2.90;;
50549;SDS011;36505;52.512;13.460;2023-07-31T13:02:44;7.30;;;2.67;;
50549;SDS011;36505;52.512;13.460;2023-07-31T13:05:10;4.82;;;2.20;;
50549;SDS011;36505;52.512;13.460;2023-07-31T13:07:35;4.63;;;2.05;;
50549;SDS011;36505;52.512;13.460;2023-07-31T13:10:01;5.53;;;2.42;;
50549;SDS011;36505;52.512;13.460;2023-07-31T13:12:26;6.40;;;1.90;;
50549;SDS011;36505;52.512;13.460;2023-07-31T13:14:52;2.63;;;1.70;;
50549;SDS011;36505;52.512;13.460;2023-07-31T13:17:17;3.67;;;2.05;;
50549;SDS011;36505;52.512;13.460;2023-07-31T13:19:43;4.78;;;2.35;;
50549;SDS011;36505;52.512;13.460;2023-07-31T13:22:08;5.50;;;1.60;;
50549;SDS011;36505;52.512;13.460;2023-07-31T13:24:34;3.08;;;1.80;;
50549;SDS011;36505;52.512;13.460;2023-07-31T13:26:59;5.53;;;2.30;;
50549;SDS011;36505;52.512;13.460;2023-07-31T13:29:24;6.93;;;1.80;;
50549;SDS011;36505;52.512;13.460;2023-07-31T13:31:50;4.72;;;2.15;;
50549;SDS011;36505;52.512;13.460;2023-07-31T13:34:17;4.07;;;1.70;;
50549;SDS011;36505;52.512;13.460;2023-07-31T13:36:42;13.68;;;2.22;;
50549;SDS011;36505;52.512;13.460;2023-07-31T13:39:07;6.70;;;3.00;;
50549;SDS011;36505;52.512;13.460;2023-07-31T13:41:33;3.15;;;2.03;;
50549;SDS011;36505;52.512;13.460;2023-07-31T13:43:58;6.93;;;2.20;;
50549;SDS011;36505;52.512;13.460;2023-07-31T13:46:24;9.02;;;2.70;;
50549;SDS011;36505;52.512;13.460;2023-07-31T13:48:50;5.30;;;2.65;;
50549;SDS011;36505;52.512;13.460;2023-07-31T13:51:16;9.93;;;3.40;;
50549;SDS011;36505;52.512;13.460;2023-07-31T13:53:41;7.68;;;3.10;;
50549;SDS011;36505;52.512;13.460;2023-07-31T13:56:07;6.70;;;2.78;;
50549;SDS011;36505;52.512;13.460;2023-07-31T13:58:33;8.88;;;2.75;;
50549;SDS011;36505;52.512;13.460;2023-07-31T14:00:58;8.27;;;2.97;;
50549;SDS011;36505;52.512;13.460;2023-07-31T14:03:23;12.77;;;4.22;;
50549;SDS011;36505;52.512;13.460;2023-07-31T14:05:49;6.53;;;3.10;;
50549;SDS011;36505;52.512;13.460;2023-07-31T14:08:15;7.47;;;2.53;;
50549;SDS011;36505;52.512;13.460;2023-07-31T14:10:40;6.88;;;2.40;;
50549;SDS011;36505;52.512;13.460;2023-07-31T14:13:05;4.90;;;2.33;;
50549;SDS011;36505;52.512;13.460;2023-07-31T14:15:31;9.43;;;2.85;;
50549;SDS011;36505;52.512;13.460;2023-07-31T14:17:57;6.15;;;2.90;;
50549;SDS011;36505;52.512;13.460;2023-07-31T14:20:22;6.28;;;2.95;;
50549;SDS011;36505;52.512;13.460;2023-07-31T14:22:48;6.10;;;3.25;;
50549;SDS011;36505;52.512;13.460;2023-07-31T14:25:13;7.18;;;2.70;;
50549;SDS011;36505;52.512;13.460;2023-07-31T14:27:38;7.47;;;3.38;;
50549;SDS011;36505;52.512;13.460;2023-07-31T14:30:04;9.75;;;3.90;;
50549;SDS011;36505;52.512;13.460;2023-07-31T14:32:30;7.68;;;3.00;;
50549;SDS011;36505;52.512;13.460;2023-07-31T14:34:55;8.00;;;3.92;;
50549;SDS011;36505;52.512;13.460;2023-07-31T14:37:21;5.35;;;3.00;;
50549;SDS011;36505;52.512;13.460;2023-07-31T14:39:46;6.15;;;3.03;;
50549;SDS011;36505;52.512;13.460;2023-07-31T14:42:11;9.13;;;2.90;;
50549;SDS011;36505;52.512;13.460;2023-07-31T14:44:37;6.45;;;2.85;;
50549;SDS011;36505;52.512;13.460;2023-07-31T14:47:03;7.50;;;2.95;;